KSDM/SDM METAR and TAF weather

Enter ICAO airport designator
Station Type Date Time Source
KSDM METAR 2019/06/26 17:53 UTC NOAA

KSDM 261753Z 26008KT 10SM SCT020 20/13 A2998 RMK AO2 SLP148 60000 T02000128 10206 20156 51004


Station Type Date Time Source
KSDM Decoded METAR 2019/06/26 17:53 UTC NOAA

San Diego, Brown Field Municipal Airport, CA, United States (KSDM) 32-34-31N 116-59-35W 159M
Jun 26, 2019 - 01:53 PM EDT / 2019.06.26 1753 UTC
Wind: from the W (260 degrees) at 9 MPH (8 KT):0
Visibility: 10 mile(s):0
Sky conditions: partly cloudy
Temperature: 68.0 F (20.0 C)
Dew Point: 55.0 F (12.8 C)
Relative Humidity: 63%
Pressure (altimeter): 29.98 in. Hg (1015 hPa)
Pressure tendency: 0.01 inches (0.4 hPa) higher than three hours ago
ob: KSDM 261753Z 26008KT 10SM SCT020 20/13 A2998 RMK AO2 SLP148 60000 T02000128 10206 20156 51004
cycle: 18

Station Type Date Time Source
KSDM TAF UTC NOAA

Error!

Example: see airport list